sensor_id;sensor_type;location;lat;lon;timestamp;pressure;altitude;pressure_sealevel;temperature;humidity
13476;BME280;6810;63.824;20.288;2023-04-08T00:01:55;103150.38;;;1.12;63.13
13476;BME280;6810;63.824;20.288;2023-04-08T00:04:42;103081.28;;;0.68;63.22
13476;BME280;6810;63.824;20.288;2023-04-08T00:07:29;103154.69;;;1.07;62.79
13476;BME280;6810;63.824;20.288;2023-04-08T00:10:16;103150.22;;;1.03;63.16
13476;BME280;6810;63.824;20.288;2023-04-08T00:13:04;103159.81;;;1.01;62.73
13476;BME280;6810;63.824;20.288;2023-04-08T00:15:51;103088.06;;;0.59;63.22
13476;BME280;6810;63.824;20.288;2023-04-08T00:18:38;103130.53;;;0.81;62.94
13476;BME280;6810;63.824;20.288;2023-04-08T00:21:25;103139.41;;;0.88;62.88
13476;BME280;6810;63.824;20.288;2023-04-08T00:24:11;103147.34;;;0.91;63.16
13476;BME280;6810;63.824;20.288;2023-04-08T00:26:58;103137.59;;;0.84;62.83
13476;BME280;6810;63.824;20.288;2023-04-08T00:29:45;103128.72;;;0.79;63.11
13476;BME280;6810;63.824;20.288;2023-04-08T00:32:32;103138.44;;;0.84;63.35
13476;BME280;6810;63.824;20.288;2023-04-08T00:35:20;103136.66;;;0.82;62.92
13476;BME280;6810;63.824;20.288;2023-04-08T00:38:08;103130.50;;;0.80;63.09
13476;BME280;6810;63.824;20.288;2023-04-08T00:40:56;103123.44;;;0.77;62.99
13476;BME280;6810;63.824;20.288;2023-04-08T00:43:43;103125.16;;;0.75;63.03
13476;BME280;6810;63.824;20.288;2023-04-08T00:46:36;103132.13;;;0.73;63.03
13476;BME280;6810;63.824;20.288;2023-04-08T00:49:25;103084.25;;;0.43;63.23
13476;BME280;6810;63.824;20.288;2023-04-08T00:52:12;103129.44;;;0.70;63.42
13476;BME280;6810;63.824;20.288;2023-04-08T00:54:59;103125.00;;;0.68;63.22
13476;BME280;6810;63.824;20.288;2023-04-08T00:57:47;103124.97;;;0.66;63.18
13476;BME280;6810;63.824;20.288;2023-04-08T01:00:36;103122.25;;;0.62;63.36
13476;BME280;6810;63.824;20.288;2023-04-08T01:03:41;103126.63;;;0.63;63.39
13476;BME280;6810;63.824;20.288;2023-04-08T01:09:30;103129.13;;;0.57;63.30
13476;BME280;6810;63.824;20.288;2023-04-08T01:12:25;103121.19;;;0.54;63.42
13476;BME280;6810;63.824;20.288;2023-04-08T01:15:16;103086.66;;;0.33;63.47
13476;BME280;6810;63.824;20.288;2023-04-08T01:18:08;103085.66;;;0.28;63.81
13476;BME280;6810;63.824;20.288;2023-04-08T01:20:56;103067.06;;;0.17;63.90
13476;BME280;6810;63.824;20.288;2023-04-08T01:23:56;103126.31;;;0.48;63.76
13476;BME280;6810;63.824;20.288;2023-04-08T01:26:45;103126.28;;;0.46;63.78
13476;BME280;6810;63.824;20.288;2023-04-08T01:29:33;103124.53;;;0.45;63.61
13476;BME280;6810;63.824;20.288;2023-04-08T01:32:21;103120.97;;;0.43;63.74
13476;BME280;6810;63.824;20.288;2023-04-08T01:35:08;103101.38;;;0.28;63.85
13476;BME280;6810;63.824;20.288;2023-04-08T01:37:56;103079.13;;;0.08;63.54
13476;BME280;6810;63.824;20.288;2023-04-08T01:40:45;103046.47;;;-0.07;63.96
13476;BME280;6810;63.824;20.288;2023-04-08T01:43:34;103129.59;;;0.38;63.88
13476;BME280;6810;63.824;20.288;2023-04-08T01:46:21;103123.50;;;0.39;63.68
13476;BME280;6810;63.824;20.288;2023-04-08T01:49:08;103111.81;;;0.25;63.72
13476;BME280;6810;63.824;20.288;2023-04-08T01:51:59;103125.22;;;0.37;63.91
13476;BME280;6810;63.824;20.288;2023-04-08T01:54:47;103127.81;;;0.35;63.85
13476;BME280;6810;63.824;20.288;2023-04-08T01:57:36;103133.06;;;0.35;63.90
13476;BME280;6810;63.824;20.288;2023-04-08T02:00:28;103131.25;;;0.34;64.07
13476;BME280;6810;63.824;20.288;2023-04-08T02:03:17;103121.50;;;0.27;64.08
13476;BME280;6810;63.824;20.288;2023-04-08T02:06:04;103131.22;;;0.33;64.01
13476;BME280;6810;63.824;20.288;2023-04-08T02:08:52;103125.78;;;0.24;64.15
13476;BME280;6810;63.824;20.288;2023-04-08T02:11:39;103125.88;;;0.28;64.30
13476;BME280;6810;63.824;20.288;2023-04-08T02:14:27;103138.25;;;0.32;64.06
13476;BME280;6810;63.824;20.288;2023-04-08T02:17:45;103131.19;;;0.31;64.13
13476;BME280;6810;63.824;20.288;2023-04-08T02:20:42;103146.91;;;0.30;64.11
13476;BME280;6810;63.824;20.288;2023-04-08T02:23:32;103144.28;;;0.30;64.06
13476;BME280;6810;63.824;20.288;2023-04-08T02:26:21;103142.53;;;0.29;64.29
13476;BME280;6810;63.824;20.288;2023-04-08T02:29:11;103144.22;;;0.27;64.54
13476;BME280;6810;63.824;20.288;2023-04-08T02:32:00;103139.00;;;0.28;64.63
13476;BME280;6810;63.824;20.288;2023-04-08T02:34:48;103150.38;;;0.29;64.48
13476;BME280;6810;63.824;20.288;2023-04-08T02:37:37;103142.47;;;0.27;64.23
13476;BME280;6810;63.824;20.288;2023-04-08T02:40:26;103145.94;;;0.26;64.31
13476;BME280;6810;63.824;20.288;2023-04-08T02:43:13;103121.97;;;0.10;64.22
13476;BME280;6810;63.824;20.288;2023-04-08T02:46:04;103008.72;;;-0.52;64.23
13476;BME280;6810;63.824;20.288;2023-04-08T02:48:51;103149.34;;;0.22;64.56
13476;BME280;6810;63.824;20.288;2023-04-08T02:51:39;103134.44;;;0.20;64.61
13476;BME280;6810;63.824;20.288;2023-04-08T02:54:25;103141.38;;;0.18;64.79
13476;BME280;6810;63.824;20.288;2023-04-08T02:57:13;103142.25;;;0.17;64.66
13476;BME280;6810;63.824;20.288;2023-04-08T03:00:00;103142.22;;;0.15;64.59
13476;BME280;6810;63.824;20.288;2023-04-08T03:02:47;103140.38;;;0.13;64.56
13476;BME280;6810;63.824;20.288;2023-04-08T03:05:34;103139.47;;;0.11;64.52
13476;BME280;6810;63.824;20.288;2023-04-08T03:08:21;103148.19;;;0.10;64.62
13476;BME280;6810;63.824;20.288;2023-04-08T03:11:09;103142.91;;;0.08;64.89
13476;BME280;6810;63.824;20.288;2023-04-08T03:13:56;103114.56;;;-0.08;64.63
13476;BME280;6810;63.824;20.288;2023-04-08T03:16:43;103128.69;;;-0.02;64.64
13476;BME280;6810;63.824;20.288;2023-04-08T03:19:30;103148.94;;;0.04;64.87
13476;BME280;6810;63.824;20.288;2023-04-08T03:22:17;103147.94;;;-0.01;64.70
13476;BME280;6810;63.824;20.288;2023-04-08T03:25:05;103154.97;;;0.00;64.68
13476;BME280;6810;63.824;20.288;2023-04-08T03:27:52;103068.06;;;-0.54;64.41
13476;BME280;6810;63.824;20.288;2023-04-08T03:30:39;103148.75;;;-0.04;64.56
13476;BME280;6810;63.824;20.288;2023-04-08T03:33:26;103034.34;;;-0.74;64.90
13476;BME280;6810;63.824;20.288;2023-04-08T03:36:14;103141.59;;;-0.09;64.90
13476;BME280;6810;63.824;20.288;2023-04-08T03:39:01;103142.47;;;-0.10;65.12
13476;BME280;6810;63.824;20.288;2023-04-08T03:41:47;103137.13;;;-0.15;64.49
13476;BME280;6810;63.824;20.288;2023-04-08T03:44:34;103150.28;;;-0.12;64.78
13476;BME280;6810;63.824;20.288;2023-04-08T03:47:21;103146.72;;;-0.15;64.48
13476;BME280;6810;63.824;20.288;2023-04-08T03:50:09;103122.72;;;-0.32;64.42
13476;BME280;6810;63.824;20.288;2023-04-08T03:52:56;103142.94;;;-0.28;64.52
13476;BME280;6810;63.824;20.288;2023-04-08T03:55:43;103152.69;;;-0.21;65.05
13476;BME280;6810;63.824;20.288;2023-04-08T03:58:30;103101.34;;;-0.48;65.27
13476;BME280;6810;63.824;20.288;2023-04-08T04:01:18;103148.06;;;-0.32;65.02
13476;BME280;6810;63.824;20.288;2023-04-08T04:04:07;103141.91;;;-0.33;64.96
13476;BME280;6810;63.824;20.288;2023-04-08T04:06:55;103137.44;;;-0.37;64.88
13476;BME280;6810;63.824;20.288;2023-04-08T04:09:42;103134.88;;;-0.34;65.34
13476;BME280;6810;63.824;20.288;2023-04-08T04:12:29;103134.84;;;-0.35;65.21
13476;BME280;6810;63.824;20.288;2023-04-08T04:15:16;103140.06;;;-0.37;64.60
13476;BME280;6810;63.824;20.288;2023-04-08T04:18:03;103110.75;;;-0.56;64.75
13476;BME280;6810;63.824;20.288;2023-04-08T04:20:50;103139.06;;;-0.42;64.73
13476;BME280;6810;63.824;20.288;2023-04-08T04:23:37;103157.53;;;-0.37;64.72
13476;BME280;6810;63.824;20.288;2023-04-08T04:26:23;103160.94;;;-0.40;64.74
13476;BME280;6810;63.824;20.288;2023-04-08T04:29:10;103121.19;;;-0.58;65.47
13476;BME280;6810;63.824;20.288;2023-04-08T04:31:57;103132.59;;;-0.56;64.95
13476;BME280;6810;63.824;20.288;2023-04-08T04:34:45;103106.88;;;-0.70;65.40
13476;BME280;6810;63.824;20.288;2023-04-08T04:37:32;103159.94;;;-0.45;65.07
13476;BME280;6810;63.824;20.288;2023-04-08T04:40:19;103129.84;;;-0.60;65.51
13476;BME280;6810;63.824;20.288;2023-04-08T04:43:06;103134.34;;;-0.55;64.75
13476;BME280;6810;63.824;20.288;2023-04-08T04:45:53;103151.16;;;-0.47;65.23
13476;BME280;6810;63.824;20.288;2023-04-08T04:48:41;103129.97;;;-0.56;65.53
13476;BME280;6810;63.824;20.288;2023-04-08T04:51:30;103142.38;;;-0.49;65.28
13476;BME280;6810;63.824;20.288;2023-04-08T04:54:17;103135.25;;;-0.54;65.11
13476;BME280;6810;63.824;20.288;2023-04-08T04:57:04;103144.13;;;-0.49;65.17
13476;BME280;6810;63.824;20.288;2023-04-08T04:59:51;103116.69;;;-0.63;65.64
13476;BME280;6810;63.824;20.288;2023-04-08T05:02:38;103143.25;;;-0.48;65.68
13476;BME280;6810;63.824;20.288;2023-04-08T05:05:25;103125.53;;;-0.60;65.67
13476;BME280;6810;63.824;20.288;2023-04-08T05:08:12;103143.31;;;-0.47;65.75
13476;BME280;6810;63.824;20.288;2023-04-08T05:10:59;103145.06;;;-0.46;65.61
13476;BME280;6810;63.824;20.288;2023-04-08T05:13:46;103081.31;;;-0.80;65.36
13476;BME280;6810;63.824;20.288;2023-04-08T05:16:34;103130.09;;;-0.51;65.73
13476;BME280;6810;63.824;20.288;2023-04-08T05:19:21;103141.69;;;-0.42;66.04
13476;BME280;6810;63.824;20.288;2023-04-08T05:22:08;103149.59;;;-0.40;66.23
13476;BME280;6810;63.824;20.288;2023-04-08T05:24:55;103060.22;;;-0.86;66.03
13476;BME280;6810;63.824;20.288;2023-04-08T05:27:42;103141.72;;;-0.40;65.60
13476;BME280;6810;63.824;20.288;2023-04-08T05:30:29;103139.09;;;-0.40;65.96
13476;BME280;6810;63.824;20.288;2023-04-08T05:33:17;103120.63;;;-0.46;66.13
13476;BME280;6810;63.824;20.288;2023-04-08T05:36:04;103145.47;;;-0.31;66.28
13476;BME280;6810;63.824;20.288;2023-04-08T05:38:51;103126.13;;;-0.36;66.36
13476;BME280;6810;63.824;20.288;2023-04-08T05:41:38;103128.84;;;-0.31;66.11
13476;BME280;6810;63.824;20.288;2023-04-08T05:44:25;103101.41;;;-0.47;65.82
13476;BME280;6810;63.824;20.288;2023-04-08T05:47:12;103104.97;;;-0.43;66.62
13476;BME280;6810;63.824;20.288;2023-04-08T05:49:59;103146.63;;;-0.18;66.28
13476;BME280;6810;63.824;20.288;2023-04-08T05:52:46;103137.13;;;-0.15;66.34
13476;BME280;6810;63.824;20.288;2023-04-08T05:55:33;103145.09;;;-0.10;66.69
13476;BME280;6810;63.824;20.288;2023-04-08T05:58:20;103063.59;;;-0.56;66.55
13476;BME280;6810;63.824;20.288;2023-04-08T06:00:47;103146.16;;;-0.02;66.86
13476;BME280;6810;63.824;20.288;2023-04-08T06:03:14;103150.63;;;0.02;66.35
13476;BME280;6810;63.824;20.288;2023-04-08T06:05:45;103146.28;;;0.03;66.52
13476;BME280;6810;63.824;20.288;2023-04-08T06:08:13;103147.34;;;0.11;66.29
13476;BME280;6810;63.824;20.288;2023-04-08T06:10:40;103147.50;;;0.17;66.92
13476;BME280;6810;63.824;20.288;2023-04-08T06:13:13;103155.44;;;0.20;66.46
13476;BME280;6810;63.824;20.288;2023-04-08T06:15:41;103155.53;;;0.24;66.46
13476;BME280;6810;63.824;20.288;2023-04-08T06:18:08;103157.34;;;0.28;66.45
13476;BME280;6810;63.824;20.288;2023-04-08T06:20:35;103157.44;;;0.31;66.63
13476;BME280;6810;63.824;20.288;2023-04-08T06:23:02;103157.53;;;0.36;66.79
13476;BME280;6810;63.824;20.288;2023-04-08T06:25:29;103161.13;;;0.39;66.47
13476;BME280;6810;63.824;20.288;2023-04-08T06:27:56;103148.00;;;0.39;66.35
13476;BME280;6810;63.824;20.288;2023-04-08T06:30:23;103153.41;;;0.47;66.38
13476;BME280;6810;63.824;20.288;2023-04-08T06:32:50;103150.84;;;0.50;66.29
13476;BME280;6810;63.824;20.288;2023-04-08T06:35:17;103128.72;;;0.37;66.74
13476;BME280;6810;63.824;20.288;2023-04-08T06:37:44;103110.22;;;0.31;66.24
13476;BME280;6810;63.824;20.288;2023-04-08T06:40:11;103138.72;;;0.55;66.26
13476;BME280;6810;63.824;20.288;2023-04-08T06:42:38;103154.69;;;0.65;66.33
13476;BME280;6810;63.824;20.288;2023-04-08T06:45:18;103146.03;;;0.69;66.55
13476;BME280;6810;63.824;20.288;2023-04-08T06:47:45;103133.72;;;0.67;66.43
13476;BME280;6810;63.824;20.288;2023-04-08T06:50:13;103146.19;;;0.77;66.82
13476;BME280;6810;63.824;20.288;2023-04-08T06:52:40;103139.28;;;0.82;66.50
13476;BME280;6810;63.824;20.288;2023-04-08T06:55:07;103128.72;;;0.79;66.41
13476;BME280;6810;63.824;20.288;2023-04-08T06:57:34;103114.59;;;0.72;66.52
13476;BME280;6810;63.824;20.288;2023-04-08T07:00:01;103155.41;;;1.00;66.33
13476;BME280;6810;63.824;20.288;2023-04-08T07:02:28;103149.41;;;1.05;66.34
13476;BME280;6810;63.824;20.288;2023-04-08T07:04:55;103147.72;;;1.10;66.41
13476;BME280;6810;63.824;20.288;2023-04-08T07:07:22;103136.38;;;1.10;66.45
13476;BME280;6810;63.824;20.288;2023-04-08T07:09:50;103149.78;;;1.25;66.35
13476;BME280;6810;63.824;20.288;2023-04-08T07:12:17;103141.97;;;1.28;66.42
13476;BME280;6810;63.824;20.288;2023-04-08T07:14:44;103140.41;;;1.39;66.42
13476;BME280;6810;63.824;20.288;2023-04-08T07:17:11;103126.31;;;1.34;65.95
13476;BME280;6810;63.824;20.288;2023-04-08T07:19:38;103080.47;;;1.17;66.34
13476;BME280;6810;63.824;20.288;2023-04-08T07:22:05;103121.16;;;1.40;66.48
13476;BME280;6810;63.824;20.288;2023-04-08T07:24:32;103149.63;;;1.65;65.92
13476;BME280;6810;63.824;20.288;2023-04-08T07:27:00;103133.84;;;1.63;65.86
13476;BME280;6810;63.824;20.288;2023-04-08T07:29:27;103139.31;;;1.77;65.85
13476;BME280;6810;63.824;20.288;2023-04-08T07:31:54;103139.38;;;1.80;65.69
13476;BME280;6810;63.824;20.288;2023-04-08T07:34:21;103142.94;;;1.85;65.95
13476;BME280;6810;63.824;20.288;2023-04-08T07:36:48;103137.88;;;1.96;66.27
13476;BME280;6810;63.824;20.288;2023-04-08T07:39:16;103139.75;;;2.04;66.25
13476;BME280;6810;63.824;20.288;2023-04-08T07:41:43;103135.50;;;2.12;65.95
13476;BME280;6810;63.824;20.288;2023-04-08T07:44:10;103121.53;;;2.18;65.92
13476;BME280;6810;63.824;20.288;2023-04-08T07:46:37;103091.63;;;2.11;66.31
13476;BME280;6810;63.824;20.288;2023-04-08T07:49:04;103129.75;;;2.40;66.36
13476;BME280;6810;63.824;20.288;2023-04-08T07:51:32;103128.13;;;2.50;66.48
13476;BME280;6810;63.824;20.288;2023-04-08T07:53:59;103123.00;;;2.60;65.86
13476;BME280;6810;63.824;20.288;2023-04-08T07:56:26;103124.03;;;2.71;66.35
13476;BME280;6810;63.824;20.288;2023-04-08T07:58:54;103132.94;;;2.81;65.71
13476;BME280;6810;63.824;20.288;2023-04-08T08:01:22;103116.31;;;2.86;66.30
13476;BME280;6810;63.824;20.288;2023-04-08T08:03:50;103133.22;;;3.05;66.13
13476;BME280;6810;63.824;20.288;2023-04-08T08:06:19;103110.38;;;3.04;65.18
13476;BME280;6810;63.824;20.288;2023-04-08T08:08:47;103134.34;;;3.26;66.46
13476;BME280;6810;63.824;20.288;2023-04-08T08:11:14;103137.97;;;3.39;65.93
13476;BME280;6810;63.824;20.288;2023-04-08T08:13:41;103144.22;;;3.51;66.12
13476;BME280;6810;63.824;20.288;2023-04-08T08:16:08;103132.91;;;3.60;64.99
13476;BME280;6810;63.824;20.288;2023-04-08T08:18:38;103094.09;;;3.45;65.07
13476;BME280;6810;63.824;20.288;2023-04-08T08:21:06;103143.69;;;3.87;65.08
13476;BME280;6810;63.824;20.288;2023-04-08T08:23:34;103132.34;;;3.97;65.87
13476;BME280;6810;63.824;20.288;2023-04-08T08:26:06;103140.34;;;4.11;65.35
13476;BME280;6810;63.824;20.288;2023-04-08T08:28:37;103129.88;;;4.23;64.37
13476;BME280;6810;63.824;20.288;2023-04-08T08:31:04;103069.03;;;3.97;64.34
13476;BME280;6810;63.824;20.288;2023-04-08T08:33:32;103134.41;;;4.46;64.06
13476;BME280;6810;63.824;20.288;2023-04-08T08:35:59;103131.84;;;4.57;65.30
13476;BME280;6810;63.824;20.288;2023-04-08T08:38:26;103137.19;;;4.69;64.31
13476;BME280;6810;63.824;20.288;2023-04-08T08:40:54;103131.94;;;4.81;64.11
13476;BME280;6810;63.824;20.288;2023-04-08T08:43:23;103069.31;;;4.59;64.52
13476;BME280;6810;63.824;20.288;2023-04-08T08:45:50;103132.91;;;5.02;64.04
13476;BME280;6810;63.824;20.288;2023-04-08T08:48:17;103117.91;;;5.06;64.61
13476;BME280;6810;63.824;20.288;2023-04-08T08:50:45;103078.25;;;4.98;63.97
13476;BME280;6810;63.824;20.288;2023-04-08T08:53:12;103122.41;;;5.34;64.10
13476;BME280;6810;63.824;20.288;2023-04-08T08:55:39;103097.69;;;5.32;64.05
13476;BME280;6810;63.824;20.288;2023-04-08T08:58:26;103119.75;;;5.52;63.38
13476;BME280;6810;63.824;20.288;2023-04-08T09:00:54;103113.63;;;5.61;63.46
13476;BME280;6810;63.824;20.288;2023-04-08T09:03:26;103101.25;;;5.67;63.60
13476;BME280;6810;63.824;20.288;2023-04-08T09:05:55;103114.50;;;5.78;63.18
13476;BME280;6810;63.824;20.288;2023-04-08T09:08:30;103110.09;;;5.86;63.05
13476;BME280;6810;63.824;20.288;2023-04-08T09:11:14;103099.50;;;5.93;63.57
13476;BME280;6810;63.824;20.288;2023-04-08T09:13:42;103100.38;;;6.01;62.79
13476;BME280;6810;63.824;20.288;2023-04-08T09:16:11;103072.19;;;5.90;62.69
13476;BME280;6810;63.824;20.288;2023-04-08T09:18:40;103098.59;;;6.15;62.47
13476;BME280;6810;63.824;20.288;2023-04-08T09:21:11;103096.84;;;6.23;62.95
13476;BME280;6810;63.824;20.288;2023-04-08T09:23:49;103099.47;;;6.29;62.61
13476;BME280;6810;63.824;20.288;2023-04-08T09:26:22;103092.34;;;6.37;62.53
13476;BME280;6810;63.824;20.288;2023-04-08T09:29:00;103086.16;;;6.46;62.43
13476;BME280;6810;63.824;20.288;2023-04-08T09:31:40;103090.53;;;6.53;62.41
13476;BME280;6810;63.824;20.288;2023-04-08T09:34:12;103061.44;;;6.45;61.87
13476;BME280;6810;63.824;20.288;2023-04-08T09:36:41;103089.59;;;6.70;62.52
13476;BME280;6810;63.824;20.288;2023-04-08T09:39:08;103041.06;;;6.56;62.28
13476;BME280;6810;63.824;20.288;2023-04-08T09:41:37;103087.72;;;6.90;62.75
13476;BME280;6810;63.824;20.288;2023-04-08T09:44:06;103077.06;;;7.02;62.25
13476;BME280;6810;63.824;20.288;2023-04-08T09:52:09;103062.63;;;7.46;62.25
13476;BME280;6810;63.824;20.288;2023-04-08T09:57:49;103048.19;;;7.74;62.01
13476;BME280;6810;63.824;20.288;2023-04-08T10:00:18;103059.53;;;7.92;62.10
13476;BME280;6810;63.824;20.288;2023-04-08T10:03:01;103032.97;;;7.91;61.49
13476;BME280;6810;63.824;20.288;2023-04-08T10:05:36;103061.00;;;8.22;61.41
13476;BME280;6810;63.824;20.288;2023-04-08T10:08:04;103015.94;;;8.13;61.42
13476;BME280;6810;63.824;20.288;2023-04-08T10:10:34;102999.88;;;8.22;60.89
13476;BME280;6810;63.824;20.288;2023-04-08T10:13:03;103059.56;;;8.69;60.91
13476;BME280;6810;63.824;20.288;2023-04-08T10:15:32;103057.56;;;8.83;60.76
13476;BME280;6810;63.824;20.288;2023-04-08T10:23:01;103035.72;;;9.23;59.81
13476;BME280;6810;63.824;20.288;2023-04-08T10:33:09;103036.44;;;9.84;58.93
13476;BME280;6810;63.824;20.288;2023-04-08T10:35:41;103047.63;;;10.04;58.94
13476;BME280;6810;63.824;20.288;2023-04-08T10:38:08;103051.78;;;10.18;57.83
13476;BME280;6810;63.824;20.288;2023-04-08T10:40:36;103050.66;;;10.31;58.09
13476;BME280;6810;63.824;20.288;2023-04-08T10:43:09;103047.72;;;10.45;57.99
13476;BME280;6810;63.824;20.288;2023-04-08T10:45:38;103044.78;;;10.57;57.42
13476;BME280;6810;63.824;20.288;2023-04-08T10:48:22;102987.50;;;10.33;57.23
13476;BME280;6810;63.824;20.288;2023-04-08T10:51:03;103051.25;;;10.85;57.19
13476;BME280;6810;63.824;20.288;2023-04-08T10:53:32;103021.09;;;10.83;56.83
13476;BME280;6810;63.824;20.288;2023-04-08T10:56:09;103040.91;;;11.10;56.21
13476;BME280;6810;63.824;20.288;2023-04-08T10:58:53;103034.50;;;11.18;57.09
13476;BME280;6810;63.824;20.288;2023-04-08T11:01:25;103028.78;;;11.33;55.68
13476;BME280;6810;63.824;20.288;2023-04-08T11:03:52;103044.38;;;11.50;56.63
13476;BME280;6810;63.824;20.288;2023-04-08T11:06:20;103044.06;;;11.63;55.70
13476;BME280;6810;63.824;20.288;2023-04-08T11:08:47;103034.84;;;11.76;55.32
13476;BME280;6810;63.824;20.288;2023-04-08T11:11:14;103046.94;;;11.89;55.26
13476;BME280;6810;63.824;20.288;2023-04-08T11:13:42;103039.47;;;12.02;53.91
13476;BME280;6810;63.824;20.288;2023-04-08T11:16:20;103032.91;;;12.13;54.02
13476;BME280;6810;63.824;20.288;2023-04-08T11:18:47;103036.09;;;12.27;53.04
13476;BME280;6810;63.824;20.288;2023-04-08T11:21:16;103040.41;;;12.33;53.35
13476;BME280;6810;63.824;20.288;2023-04-08T11:23:43;103048.03;;;12.47;52.29
13476;BME280;6810;63.824;20.288;2023-04-08T11:26:10;103052.19;;;12.57;51.52
13476;BME280;6810;63.824;20.288;2023-04-08T11:28:37;103040.47;;;12.61;52.07
13476;BME280;6810;63.824;20.288;2023-04-08T11:31:08;103055.19;;;12.75;51.34
13476;BME280;6810;63.824;20.288;2023-04-08T11:33:36;103043.31;;;12.85;50.74
13476;BME280;6810;63.824;20.288;2023-04-08T11:36:04;103037.66;;;12.94;50.75
13476;BME280;6810;63.824;20.288;2023-04-08T11:38:32;102980.41;;;12.71;50.94
13476;BME280;6810;63.824;20.288;2023-04-08T11:40:59;103022.25;;;13.02;50.38
13476;BME280;6810;63.824;20.288;2023-04-08T11:43:26;103040.38;;;13.22;50.19
13476;BME280;6810;63.824;20.288;2023-04-08T11:45:54;103043.63;;;13.31;50.94
13476;BME280;6810;63.824;20.288;2023-04-08T11:48:21;103011.56;;;13.28;50.60
13476;BME280;6810;63.824;20.288;2023-04-08T11:51:02;103036.75;;;13.50;49.79
13476;BME280;6810;63.824;20.288;2023-04-08T11:53:30;103007.47;;;13.44;49.98
13476;BME280;6810;63.824;20.288;2023-04-08T11:55:57;103028.13;;;13.67;49.74
13476;BME280;6810;63.824;20.288;2023-04-08T11:58:24;103031.28;;;13.79;49.54
13476;BME280;6810;63.824;20.288;2023-04-08T12:00:51;102952.84;;;13.48;49.20
13476;BME280;6810;63.824;20.288;2023-04-08T12:03:18;103032.25;;;14.02;48.97
13476;BME280;6810;63.824;20.288;2023-04-08T12:05:45;103025.88;;;14.06;48.74
13476;BME280;6810;63.824;20.288;2023-04-08T12:08:12;103024.47;;;14.19;48.01
13476;BME280;6810;63.824;20.288;2023-04-08T12:10:39;102992.00;;;14.02;47.80
13476;BME280;6810;63.824;20.288;2023-04-08T12:13:06;103026.63;;;14.34;48.20
13476;BME280;6810;63.824;20.288;2023-04-08T12:15:34;103027.09;;;14.45;47.62
13476;BME280;6810;63.824;20.288;2023-04-08T12:18:01;103019.72;;;14.51;47.48
13476;BME280;6810;63.824;20.288;2023-04-08T12:20:28;103027.34;;;14.62;47.42
13476;BME280;6810;63.824;20.288;2023-04-08T12:22:55;103027.81;;;14.73;47.14
13476;BME280;6810;63.824;20.288;2023-04-08T12:25:22;103019.53;;;14.79;47.05
13476;BME280;6810;63.824;20.288;2023-04-08T12:27:49;103015.66;;;14.86;46.67
13476;BME280;6810;63.824;20.288;2023-04-08T12:30:16;103027.94;;;14.93;46.50
13476;BME280;6810;63.824;20.288;2023-04-08T12:32:43;103020.53;;;14.98;46.19
13476;BME280;6810;63.824;20.288;2023-04-08T12:35:12;103008.88;;;14.99;45.62
13476;BME280;6810;63.824;20.288;2023-04-08T12:37:39;103000.19;;;14.92;45.22
13476;BME280;6810;63.824;20.288;2023-04-08T12:40:07;103014.38;;;14.96;44.98
13476;BME280;6810;63.824;20.288;2023-04-08T12:42:34;102966.50;;;14.62;44.80
13476;BME280;6810;63.824;20.288;2023-04-08T12:45:01;103024.53;;;14.88;44.34
13476;BME280;6810;63.824;20.288;2023-04-08T12:47:28;103017.53;;;14.84;44.70
13476;BME280;6810;63.824;20.288;2023-04-08T12:49:56;103021.22;;;14.81;44.59
13476;BME280;6810;63.824;20.288;2023-04-08T12:52:23;103017.72;;;14.79;44.42
13476;BME280;6810;63.824;20.288;2023-04-08T12:54:50;103020.47;;;14.78;44.08
13476;BME280;6810;63.824;20.288;2023-04-08T12:57:17;103019.59;;;14.77;44.47
13476;BME280;6810;63.824;20.288;2023-04-08T12:59:44;103007.91;;;14.78;44.38
13476;BME280;6810;63.824;20.288;2023-04-08T13:02:11;103012.47;;;14.76;44.23
13476;BME280;6810;63.824;20.288;2023-04-08T13:04:38;103010.75;;;14.74;44.18
13476;BME280;6810;63.824;20.288;2023-04-08T13:07:05;103010.88;;;14.71;44.05
13476;BME280;6810;63.824;20.288;2023-04-08T13:09:33;103004.69;;;14.69;43.86
13476;BME280;6810;63.824;20.288;2023-04-08T13:12:00;103004.75;;;14.67;43.93
13476;BME280;6810;63.824;20.288;2023-04-08T13:14:27;103000.22;;;14.69;44.18
13476;BME280;6810;63.824;20.288;2023-04-08T13:16:54;102996.50;;;14.72;43.74
13476;BME280;6810;63.824;20.288;2023-04-08T13:19:21;102960.59;;;14.53;43.14
13476;BME280;6810;63.824;20.288;2023-04-08T13:21:48;102982.84;;;14.56;43.22
13476;BME280;6810;63.824;20.288;2023-04-08T13:24:16;102998.28;;;14.73;42.47
13476;BME280;6810;63.824;20.288;2023-04-08T13:26:43;102994.78;;;14.71;42.69
13476;BME280;6810;63.824;20.288;2023-04-08T13:29:11;102989.59;;;14.66;42.71
13476;BME280;6810;63.824;20.288;2023-04-08T13:31:38;102984.16;;;14.68;42.47
13476;BME280;6810;63.824;20.288;2023-04-08T13:34:05;102987.78;;;14.67;42.64
13476;BME280;6810;63.824;20.288;2023-04-08T13:36:32;102992.28;;;14.66;42.00
13476;BME280;6810;63.824;20.288;2023-04-08T13:39:00;102971.28;;;14.54;41.72
13476;BME280;6810;63.824;20.288;2023-04-08T13:41:27;102969.72;;;14.49;42.01
13476;BME280;6810;63.824;20.288;2023-04-08T13:43:54;102991.63;;;14.60;41.49
13476;BME280;6810;63.824;20.288;2023-04-08T13:46:22;102990.78;;;14.59;41.76
13476;BME280;6810;63.824;20.288;2023-04-08T13:48:49;102997.16;;;14.55;41.47
13476;BME280;6810;63.824;20.288;2023-04-08T13:51:17;103006.28;;;14.51;41.47
13476;BME280;6810;63.824;20.288;2023-04-08T13:53:44;103003.78;;;14.47;41.12
13476;BME280;6810;63.824;20.288;2023-04-08T13:56:11;102995.91;;;14.42;41.33
13476;BME280;6810;63.824;20.288;2023-04-08T13:58:38;102984.63;;;14.33;41.07
13476;BME280;6810;63.824;20.288;2023-04-08T14:01:06;102958.53;;;14.13;41.03
13476;BME280;6810;63.824;20.288;2023-04-08T14:03:33;102994.72;;;14.26;41.01
13476;BME280;6810;63.824;20.288;2023-04-08T14:06:20;102992.28;;;14.19;40.59
13476;BME280;6810;63.824;20.288;2023-04-08T14:09:07;102997.03;;;14.12;40.39